createdAt,value
2018-04-26T00:02:23.473Z,12.50
2018-04-26T00:04:51.687Z,12.50
2018-04-26T00:07:19.872Z,12.40
2018-04-26T00:09:48.206Z,12.40
2018-04-26T00:12:16.451Z,12.40
2018-04-26T00:14:44.679Z,12.50
2018-04-26T00:17:12.919Z,12.50
2018-04-26T00:19:41.115Z,12.50
2018-04-26T00:22:09.348Z,12.40
2018-04-26T00:24:38.363Z,12.30
2018-04-26T00:27:06.578Z,12.30
2018-04-26T00:29:34.781Z,12.40
2018-04-26T00:32:03.490Z,12.40
2018-04-26T00:34:32.819Z,12.40
2018-04-26T00:37:01.007Z,12.30
2018-04-26T00:39:29.267Z,12.30
2018-04-26T00:41:57.616Z,12.30
2018-04-26T00:44:26.572Z,12.40
2018-04-26T00:46:54.864Z,12.40
2018-04-26T00:49:23.087Z,12.30
2018-04-26T00:52:01.132Z,12.30
2018-04-26T00:54:29.347Z,12.20
2018-04-26T00:56:57.540Z,12.20
2018-04-26T00:59:25.748Z,12.30
2018-04-26T01:01:53.943Z,12.20
2018-04-26T01:04:22.284Z,12.20
2018-04-26T01:06:50.512Z,12.20
2018-04-26T01:09:19.467Z,12.10
2018-04-26T01:11:47.715Z,12.10
2018-04-26T01:14:15.904Z,12.10
2018-04-26T01:16:44.190Z,12.10
2018-04-26T01:19:12.438Z,12.20
2018-04-26T01:21:40.679Z,12.10
2018-04-26T01:24:09.635Z,12.10
2018-04-26T01:26:37.895Z,12.00
2018-04-26T01:29:06.110Z,12.00
2018-04-26T01:31:34.332Z,11.90
2018-04-26T01:34:02.558Z,11.90
2018-04-26T01:36:42.420Z,11.90
2018-04-26T01:39:11.408Z,11.80
2018-04-26T01:41:39.595Z,11.70
2018-04-26T01:44:08.592Z,11.70
2018-04-26T01:46:37.571Z,11.70
2018-04-26T01:49:06.625Z,11.70
2018-04-26T01:51:34.907Z,11.80
2018-04-26T01:54:03.127Z,11.80
2018-04-26T01:56:32.127Z,11.80
2018-04-26T01:59:01.088Z,11.80
2018-04-26T02:01:29.268Z,11.80
2018-04-26T02:03:57.465Z,11.80
2018-04-26T02:06:26.530Z,11.80
2018-04-26T02:08:54.727Z,11.80
2018-04-26T02:11:23.696Z,11.80
2018-04-26T02:13:51.995Z,11.80
2018-04-26T02:16:21.045Z,11.80
2018-04-26T02:18:49.267Z,11.70
2018-04-26T02:21:18.263Z,11.70
2018-04-26T02:23:47.264Z,11.70
2018-04-26T02:26:16.250Z,11.70
2018-04-26T02:28:45.255Z,11.70
2018-04-26T02:31:13.459Z,11.70
2018-04-26T02:33:41.699Z,11.70
2018-04-26T02:36:10.656Z,11.60
2018-04-26T02:38:38.979Z,11.60
2018-04-26T02:41:07.167Z,11.60
2018-04-26T02:43:35.389Z,11.50
2018-04-26T02:46:04.455Z,11.50
2018-04-26T02:48:32.649Z,11.50
2018-04-26T02:51:00.851Z,11.50
2018-04-26T02:53:29.863Z,11.40
2018-04-26T02:55:58.050Z,11.30
2018-04-26T02:58:26.247Z,11.40
2018-04-26T03:00:54.479Z,11.40
2018-04-26T03:03:23.461Z,11.40
2018-04-26T03:05:52.424Z,11.40
2018-04-26T03:08:21.891Z,11.40
2018-04-26T03:10:50.132Z,11.30
2018-04-26T03:13:19.095Z,11.30
2018-04-26T03:15:47.300Z,11.20
2018-04-26T03:18:16.279Z,11.20
2018-04-26T03:20:44.453Z,11.20
2018-04-26T03:23:12.738Z,11.30
2018-04-26T03:25:41.703Z,11.20
2018-04-26T03:28:10.667Z,11.10
2018-04-26T03:30:38.937Z,11.10
2018-04-26T03:33:07.131Z,11.10
2018-04-26T03:35:35.368Z,11.10
2018-04-26T03:38:04.386Z,11.00
2018-04-26T03:40:32.594Z,11.00
2018-04-26T03:43:00.835Z,11.00
2018-04-26T03:45:29.812Z,11.00
2018-04-26T03:47:58.756Z,11.00
2018-04-26T03:50:26.972Z,10.90
2018-04-26T03:52:56.035Z,10.90
2018-04-26T03:55:24.252Z,10.90
2018-04-26T03:57:52.439Z,10.90
2018-04-26T04:00:32.790Z,10.80
2018-04-26T04:03:12.761Z,10.80
2018-04-26T04:05:52.632Z,10.80
2018-04-26T04:08:20.836Z,10.80
2018-04-26T04:10:51.279Z,10.80
2018-04-26T04:13:19.485Z,10.80
2018-04-26T04:15:48.597Z,10.70
2018-04-26T04:18:17.048Z,10.70
2018-04-26T04:20:45.352Z,10.70
2018-04-26T04:23:13.547Z,10.70
2018-04-26T04:25:41.803Z,10.80
2018-04-26T04:28:10.004Z,10.80
2018-04-26T04:30:38.198Z,10.80
2018-04-26T04:33:07.200Z,10.80
2018-04-26T04:35:35.435Z,10.80
2018-04-26T04:38:03.608Z,10.80
2018-04-26T04:42:52.611Z,10.70
2018-04-26T04:45:21.575Z,10.80
2018-04-26T04:47:49.835Z,10.80
2018-04-26T04:50:18.051Z,10.80
2018-04-26T04:52:46.239Z,10.80
2018-04-26T04:55:15.211Z,10.80
2018-04-26T04:57:44.273Z,10.80
2018-04-26T05:00:12.458Z,10.80
2018-04-26T05:02:40.760Z,10.70
2018-04-26T05:05:09.032Z,10.80
2018-04-26T05:07:37.235Z,10.80
2018-04-26T05:10:06.195Z,10.90
2018-04-26T05:12:36.008Z,10.90
2018-04-26T05:15:04.199Z,10.90
2018-04-26T05:17:33.207Z,10.90
2018-04-26T05:20:02.346Z,10.80
2018-04-26T05:22:30.589Z,10.80
2018-04-26T05:24:58.807Z,10.80
2018-04-26T05:27:29.559Z,10.70
2018-04-26T05:29:57.831Z,10.80
2018-04-26T05:32:26.091Z,10.80
2018-04-26T05:34:54.308Z,10.80
2018-04-26T05:37:23.291Z,10.80
2018-04-26T05:39:52.291Z,10.80
2018-04-26T05:42:21.331Z,10.80
2018-04-26T05:44:49.511Z,10.80
2018-04-26T05:47:17.797Z,10.90
2018-04-26T05:49:45.970Z,10.90
2018-04-26T05:52:14.156Z,10.80
2018-04-26T05:54:42.432Z,10.80
2018-04-26T05:57:10.631Z,10.90
2018-04-26T05:59:39.615Z,10.90
2018-04-26T06:02:07.783Z,10.90
2018-04-26T06:04:36.123Z,11.10
2018-04-26T06:07:04.315Z,11.30
2018-04-26T06:09:32.527Z,11.50
2018-04-26T06:12:01.546Z,11.40
2018-04-26T06:14:29.787Z,11.30
2018-04-26T06:16:58.030Z,11.60
2018-04-26T06:19:26.438Z,11.60
2018-04-26T06:21:54.631Z,11.40
2018-04-26T06:24:23.587Z,11.30
2018-04-26T06:26:51.938Z,11.30
2018-04-26T06:29:20.128Z,11.40
2018-04-26T06:31:48.319Z,11.40
2018-04-26T06:34:16.964Z,11.40
2018-04-26T06:36:45.217Z,11.60
2018-04-26T06:39:13.409Z,11.50
2018-04-26T06:41:41.714Z,11.60
2018-04-26T06:44:09.921Z,11.80
2018-04-26T06:46:38.198Z,11.70
2018-04-26T06:49:07.271Z,11.40
2018-04-26T06:51:35.455Z,11.40
2018-04-26T06:54:03.719Z,11.30
2018-04-26T06:56:34.420Z,11.20
2018-04-26T06:59:02.647Z,11.20
2018-04-26T07:01:30.835Z,11.10
2018-04-26T07:03:59.819Z,11.40
2018-04-26T07:06:28.047Z,11.40
2018-04-26T07:08:56.251Z,11.50
2018-04-26T07:11:24.727Z,11.70
2018-04-26T07:13:52.920Z,12.00
2018-04-26T07:16:21.878Z,12.90
2018-04-26T07:18:51.305Z,13.20
2018-04-26T07:21:19.495Z,13.20
2018-04-26T07:23:47.707Z,13.50
2018-04-26T07:26:15.916Z,14.70
2018-04-26T07:28:44.103Z,15.90
2018-04-26T07:31:12.295Z,16.50
2018-04-26T07:33:40.540Z,17.70
2018-04-26T07:36:08.788Z,18.10
2018-04-26T07:38:37.024Z,18.40
2018-04-26T07:41:05.279Z,18.40
2018-04-26T07:43:33.514Z,17.60
2018-04-26T07:46:01.747Z,16.60
2018-04-26T07:48:29.991Z,14.90
2018-04-26T07:50:58.186Z,14.50
2018-04-26T07:53:26.383Z,14.80
2018-04-26T07:55:55.367Z,15.30
2018-04-26T07:58:23.607Z,15.30
2018-04-26T08:00:51.938Z,16.80
2018-04-26T08:03:24.667Z,18.50
2018-04-26T08:05:52.895Z,18.50
2018-04-26T08:08:21.869Z,19.40
2018-04-26T08:10:50.107Z,19.30
2018-04-26T08:13:18.295Z,21.30
2018-04-26T08:15:46.480Z,21.20
2018-04-26T08:18:14.703Z,21.10
2018-04-26T08:20:42.895Z,19.20
2018-04-26T08:23:11.171Z,19.20
2018-04-26T08:25:39.460Z,17.60
2018-04-26T08:28:07.655Z,16.70
2018-04-26T08:30:35.884Z,16.60
2018-04-26T08:33:04.067Z,17.10
2018-04-26T08:35:32.383Z,17.70
2018-04-26T08:38:00.568Z,18.90
2018-04-26T08:40:28.811Z,19.30
2018-04-26T08:42:57.055Z,18.60
2018-04-26T08:45:29.124Z,17.90
2018-04-26T08:47:58.675Z,16.20
2018-04-26T08:50:26.899Z,14.90
2018-04-26T08:52:55.091Z,14.30
2018-04-26T08:55:23.362Z,14.20
2018-04-26T08:57:51.554Z,13.60
2018-04-26T09:00:19.749Z,12.90
2018-04-26T09:02:48.155Z,12.30
2018-04-26T09:05:17.189Z,13.70
2018-04-26T09:07:45.383Z,13.60
2018-04-26T09:10:13.605Z,14.00
2018-04-26T09:12:42.564Z,13.90
2018-04-26T09:15:10.752Z,13.90
2018-04-26T09:17:39.015Z,14.00
2018-04-26T09:20:07.223Z,14.30
2018-04-26T09:22:36.228Z,14.70
2018-04-26T09:25:05.202Z,14.80
2018-04-26T09:27:34.239Z,14.90
2018-04-26T09:30:02.518Z,14.80
2018-04-26T09:32:30.762Z,15.40
2018-04-26T09:34:58.926Z,15.50
2018-04-26T09:37:28.044Z,15.00
2018-04-26T09:39:56.305Z,15.00
2018-04-26T09:42:24.442Z,14.60
2018-04-26T09:44:54.062Z,14.20
2018-04-26T09:47:22.307Z,14.00
2018-04-26T09:49:50.499Z,14.00
2018-04-26T09:52:18.725Z,14.10
2018-04-26T09:54:47.015Z,13.90
2018-04-26T09:57:15.319Z,13.60
2018-04-26T09:59:43.656Z,13.30
2018-04-26T10:02:12.710Z,14.20
2018-04-26T10:04:46.585Z,14.20
2018-04-26T10:07:15.588Z,14.80
2018-04-26T10:09:43.899Z,14.80
2018-04-26T10:12:12.094Z,14.90
2018-04-26T10:14:41.096Z,15.00
2018-04-26T10:17:09.296Z,15.00
2018-04-26T10:19:37.540Z,15.20
2018-04-26T10:22:06.546Z,15.50
2018-04-26T10:24:34.775Z,15.50
2018-04-26T10:27:03.055Z,15.60
2018-04-26T10:29:31.327Z,15.70
2018-04-26T10:31:59.579Z,15.40
2018-04-26T10:34:27.877Z,14.80
2018-04-26T10:36:56.167Z,14.30
2018-04-26T10:39:24.370Z,14.10
2018-04-26T10:41:52.559Z,14.20
2018-04-26T10:44:20.823Z,14.40
2018-04-26T10:46:49.768Z,15.20
2018-04-26T10:49:18.011Z,15.20
2018-04-26T10:51:46.951Z,15.00
2018-04-26T10:54:15.160Z,15.00
2018-04-26T10:56:43.357Z,15.00
2018-04-26T10:59:11.574Z,15.30
2018-04-26T11:01:39.771Z,15.70
2018-04-26T11:04:08.790Z,15.70
2018-04-26T11:06:37.928Z,15.70
2018-04-26T11:09:06.138Z,15.40
2018-04-26T11:11:34.459Z,15.00
2018-04-26T11:14:02.720Z,15.30
2018-04-26T11:19:02.715Z,15.10
2018-04-26T11:21:31.717Z,15.20
2018-04-26T11:24:00.688Z,15.00
2018-04-26T11:26:28.931Z,15.00
2018-04-26T11:28:57.207Z,14.60
2018-04-26T11:31:25.457Z,14.50
2018-04-26T11:33:53.615Z,14.70
2018-04-26T11:36:22.087Z,15.10
2018-04-26T11:38:51.179Z,15.70
2018-04-26T11:41:20.272Z,16.20
2018-04-26T11:43:49.246Z,16.40
2018-04-26T11:46:17.472Z,16.40
2018-04-26T11:48:46.990Z,16.10
2018-04-26T11:51:15.195Z,15.90
2018-04-26T11:53:43.445Z,15.80
2018-04-26T11:56:11.652Z,15.50
2018-04-26T11:58:39.895Z,15.40
2018-04-26T12:01:08.083Z,15.40
2018-04-26T12:03:36.348Z,14.90
2018-04-26T12:06:04.738Z,14.90
2018-04-26T12:08:32.955Z,15.30
2018-04-26T12:11:01.196Z,16.00
2018-04-26T12:13:29.583Z,15.90
2018-04-26T12:15:57.905Z,15.80
2018-04-26T12:18:26.782Z,16.60
2018-04-26T12:20:54.967Z,16.60
2018-04-26T12:23:23.919Z,17.10
2018-04-26T12:25:52.115Z,17.10
2018-04-26T12:28:21.153Z,16.30
2018-04-26T12:30:49.380Z,16.30
2018-04-26T12:33:18.335Z,16.60
2018-04-26T12:35:46.708Z,16.60
2018-04-26T12:38:14.952Z,16.60
2018-04-26T12:40:44.070Z,16.80
2018-04-26T12:43:13.042Z,16.50
2018-04-26T12:45:41.288Z,16.50
2018-04-26T12:48:09.489Z,16.60
2018-04-26T12:50:40.975Z,16.20
2018-04-26T12:53:09.214Z,16.10
2018-04-26T12:55:37.407Z,16.20
2018-04-26T12:58:05.758Z,16.70
2018-04-26T13:00:34.001Z,17.40
2018-04-26T13:03:02.195Z,17.50
2018-04-26T13:05:30.519Z,17.20
2018-04-26T13:07:58.835Z,17.90
2018-04-26T13:10:27.732Z,19.60
2018-04-26T13:12:55.946Z,19.50
2018-04-26T13:15:24.212Z,19.80
2018-04-26T13:17:53.187Z,18.00
2018-04-26T13:20:22.319Z,17.20
2018-04-26T13:22:50.576Z,17.10
2018-04-26T13:25:18.877Z,17.80
2018-04-26T13:27:47.134Z,19.40
2018-04-26T13:30:16.093Z,21.00
2018-04-26T13:32:44.284Z,21.00
2018-04-26T13:35:13.293Z,19.70
2018-04-26T13:37:41.492Z,19.60
2018-04-26T13:40:09.741Z,20.10
2018-04-26T13:42:38.019Z,21.70
2018-04-26T13:45:06.243Z,23.40
2018-04-26T13:47:34.503Z,23.20
2018-04-26T13:50:02.803Z,20.70
2018-04-26T13:52:31.146Z,19.60
2018-04-26T13:54:59.331Z,18.30
2018-04-26T13:57:27.571Z,17.10
2018-04-26T13:59:56.562Z,17.00
2018-04-26T14:02:25.595Z,16.70
2018-04-26T14:04:53.829Z,16.70
2018-04-26T14:07:22.793Z,16.50
2018-04-26T14:09:51.066Z,16.50
2018-04-26T14:12:19.207Z,16.60
2018-04-26T14:14:47.401Z,18.50
2018-04-26T14:17:15.727Z,19.80
2018-04-26T14:19:47.160Z,21.00
2018-04-26T14:22:15.666Z,21.00
2018-04-26T14:24:44.652Z,19.40
2018-04-26T14:27:13.712Z,18.70
2018-04-26T14:29:42.160Z,18.70
2018-04-26T14:32:10.309Z,17.70
2018-04-26T14:34:39.571Z,16.70
2018-04-26T14:37:07.799Z,16.60
2018-04-26T14:39:36.819Z,16.20
2018-04-26T14:42:05.219Z,16.20
2018-04-26T14:44:33.447Z,16.10
2018-04-26T14:47:01.643Z,16.50
2018-04-26T14:49:30.169Z,18.00
2018-04-26T14:51:58.324Z,19.30
2018-04-26T14:54:31.520Z,19.70
2018-04-26T14:57:00.717Z,18.80
2018-04-26T14:59:28.859Z,18.00
2018-04-26T15:01:57.112Z,17.00
2018-04-26T15:04:25.299Z,16.70
2018-04-26T15:06:53.488Z,16.70
2018-04-26T15:09:21.746Z,16.70
2018-04-26T15:11:49.981Z,16.60
2018-04-26T15:14:18.256Z,16.60
2018-04-26T15:16:47.247Z,16.20
2018-04-26T15:19:15.435Z,16.20
2018-04-26T15:21:44.447Z,16.10
2018-04-26T15:24:13.484Z,16.00
2018-04-26T15:26:41.844Z,15.90
2018-04-26T15:29:10.065Z,15.80
2018-04-26T15:31:38.279Z,15.60
2018-04-26T15:34:06.467Z,15.40
2018-04-26T15:36:34.671Z,15.60
2018-04-26T15:39:03.044Z,15.30
2018-04-26T15:41:36.032Z,15.50
2018-04-26T15:44:04.301Z,15.60
2018-04-26T15:46:32.492Z,15.70
2018-04-26T15:49:00.707Z,15.60
2018-04-26T15:51:28.936Z,15.70
2018-04-26T15:54:08.823Z,15.60
2018-04-26T15:56:53.813Z,15.50
2018-04-26T15:59:33.718Z,15.30
2018-04-26T16:02:31.384Z,15.10
2018-04-26T16:05:17.084Z,15.20
2018-04-26T16:08:03.755Z,15.20
2018-04-26T16:10:49.346Z,15.20
2018-04-26T16:13:35.134Z,15.40
2018-04-26T16:19:36.341Z,15.20
2018-04-26T16:22:22.115Z,15.10
2018-04-26T16:25:02.962Z,15.00
2018-04-26T16:27:45.045Z,15.00
2018-04-26T16:30:25.019Z,14.90
2018-04-26T16:33:05.000Z,14.70
2018-04-26T16:35:45.555Z,14.70
2018-04-26T16:38:25.383Z,14.70
2018-04-26T16:40:53.733Z,14.60
2018-04-26T16:43:21.899Z,14.70
2018-04-26T16:45:50.154Z,14.80
2018-04-26T16:48:18.349Z,14.80
2018-04-26T16:50:46.574Z,14.80
2018-04-26T16:53:15.531Z,14.80
2018-04-26T16:55:43.896Z,14.70
2018-04-26T16:58:13.642Z,14.40
2018-04-26T17:00:41.933Z,14.50
2018-04-26T17:03:10.915Z,14.40
2018-04-26T17:05:39.173Z,14.30
2018-04-26T17:08:07.343Z,14.40
2018-04-26T17:10:35.611Z,14.60
2018-04-26T17:13:03.890Z,14.80
2018-04-26T17:15:32.276Z,14.70
2018-04-26T17:18:00.761Z,14.40
2018-04-26T17:22:57.715Z,14.20
2018-04-26T17:25:25.963Z,14.20
2018-04-26T17:27:54.240Z,14.10
2018-04-26T17:30:22.419Z,14.20
2018-04-26T17:32:50.704Z,14.10
2018-04-26T17:35:18.904Z,14.00
2018-04-26T17:37:47.139Z,13.90
2018-04-26T17:40:16.889Z,13.80
2018-04-26T17:42:45.355Z,13.80
2018-04-26T17:45:13.587Z,13.80
2018-04-26T17:47:41.918Z,13.70
2018-04-26T17:50:10.095Z,13.60
2018-04-26T17:52:38.283Z,13.50
2018-04-26T17:55:06.499Z,13.50
2018-04-26T17:57:34.715Z,13.40
2018-04-26T18:00:04.143Z,13.40
2018-04-26T18:02:32.474Z,13.40
2018-04-26T18:05:00.675Z,13.30
2018-04-26T18:07:28.903Z,13.20
2018-04-26T18:09:57.133Z,13.20
2018-04-26T18:12:25.395Z,13.20
2018-04-26T18:14:53.683Z,13.10
2018-04-26T18:17:21.930Z,13.10
2018-04-26T18:19:50.845Z,12.90
2018-04-26T18:22:19.032Z,12.90
2018-04-26T18:24:47.366Z,12.80
2018-04-26T18:27:15.579Z,12.70
2018-04-26T18:29:43.767Z,12.70
2018-04-26T18:32:12.894Z,12.60
2018-04-26T18:34:41.049Z,12.60
2018-04-26T18:37:09.253Z,12.50
2018-04-26T18:39:37.475Z,12.50
2018-04-26T18:42:05.670Z,12.40
2018-04-26T18:44:34.659Z,12.30
2018-04-26T18:47:03.655Z,12.30
2018-04-26T18:49:32.631Z,12.30
2018-04-26T18:52:00.808Z,12.30
2018-04-26T18:54:29.018Z,12.20
2018-04-26T18:56:57.325Z,12.20
2018-04-26T18:59:25.593Z,12.10
2018-04-26T19:01:56.228Z,12.10
2018-04-26T19:04:24.470Z,12.10
2018-04-26T19:06:52.680Z,12.00
2018-04-26T19:09:20.977Z,11.90
2018-04-26T19:11:49.204Z,11.90
2018-04-26T19:14:17.427Z,11.70
2018-04-26T19:16:45.757Z,11.70
2018-04-26T19:19:14.775Z,11.70
2018-04-26T19:21:43.868Z,11.70
2018-04-26T19:24:12.159Z,11.70
2018-04-26T19:26:40.427Z,11.30
2018-04-26T19:29:08.613Z,11.30
2018-04-26T19:31:36.860Z,11.20
2018-04-26T19:34:05.162Z,11.10
2018-04-26T19:36:33.271Z,11.10
2018-04-26T19:39:01.503Z,10.90
2018-04-26T19:41:29.711Z,10.90
2018-04-26T19:43:57.906Z,10.80
2018-04-26T19:46:26.123Z,10.90
2018-04-26T19:48:54.449Z,10.80
2018-04-26T19:51:22.708Z,10.70
2018-04-26T19:53:50.975Z,10.70
2018-04-26T19:56:19.259Z,10.60
2018-04-26T19:58:47.462Z,10.60
2018-04-26T20:01:15.714Z,10.60
2018-04-26T20:03:43.915Z,10.50
2018-04-26T20:06:12.151Z,10.30
2018-04-26T20:08:40.619Z,10.30
2018-04-26T20:11:09.651Z,10.40
2018-04-26T20:13:38.870Z,10.40
2018-04-26T20:16:08.011Z,10.30
2018-04-26T20:18:36.243Z,10.30
2018-04-26T20:21:04.522Z,10.20
2018-04-26T20:23:33.407Z,10.00
2018-04-26T20:26:02.419Z,10.00
2018-04-26T20:28:30.607Z,10.00
2018-04-26T20:30:58.799Z,9.80
2018-04-26T20:33:27.406Z,9.60
2018-04-26T20:35:57.044Z,9.60
2018-04-26T20:38:25.280Z,9.70
2018-04-26T20:40:53.728Z,9.70
2018-04-26T20:43:21.959Z,9.70
2018-04-26T20:45:50.163Z,9.60
2018-04-26T20:48:30.850Z,9.50
2018-04-26T20:50:59.062Z,9.50
2018-04-26T20:53:27.414Z,9.60
2018-04-26T20:55:55.656Z,9.60
2018-04-26T20:58:24.715Z,9.70
2018-04-26T21:00:52.893Z,9.70
2018-04-26T21:03:21.067Z,9.70
2018-04-26T21:05:49.451Z,9.50
2018-04-26T21:08:17.715Z,9.50
2018-04-26T21:10:45.888Z,9.40
2018-04-26T21:13:14.645Z,9.30
2018-04-26T21:15:43.163Z,9.20
2018-04-26T21:18:11.355Z,9.40
2018-04-26T21:20:39.599Z,9.30
2018-04-26T21:23:08.266Z,9.40
2018-04-26T21:25:36.654Z,9.30
2018-04-26T21:28:04.889Z,9.00
2018-04-26T21:30:33.087Z,9.10
2018-04-26T21:33:02.071Z,8.80
2018-04-26T21:35:30.619Z,8.80
2018-04-26T21:37:59.487Z,8.90
2018-04-26T21:40:27.675Z,8.90
2018-04-26T21:42:56.509Z,8.90
2018-04-26T21:45:25.310Z,8.90
2018-04-26T21:47:54.380Z,8.90
2018-04-26T21:50:28.200Z,8.80
2018-04-26T21:53:02.034Z,8.90
2018-04-26T21:55:36.363Z,8.70
2018-04-26T21:58:12.855Z,8.40
2018-04-26T22:00:46.930Z,8.30
2018-04-26T22:03:15.571Z,8.30
2018-04-26T22:05:43.751Z,8.20
2018-04-26T22:08:12.252Z,8.20
2018-04-26T22:10:41.210Z,8.20
2018-04-26T22:13:09.411Z,8.20
2018-04-26T22:15:37.775Z,8.20
2018-04-26T22:18:06.046Z,8.20
2018-04-26T22:20:34.255Z,8.30
2018-04-26T22:23:04.139Z,8.10
2018-04-26T22:25:32.326Z,8.10
2018-04-26T22:28:00.566Z,7.80
2018-04-26T22:30:28.816Z,7.80
2018-04-26T22:32:57.790Z,7.90
2018-04-26T22:35:26.751Z,7.70
2018-04-26T22:37:55.075Z,7.70
2018-04-26T22:40:23.276Z,7.80
2018-04-26T22:42:51.519Z,7.60
2018-04-26T22:45:19.822Z,7.50
2018-04-26T22:47:48.012Z,7.40
2018-04-26T22:50:16.206Z,7.00
2018-04-26T22:52:44.512Z,7.10
2018-04-26T22:55:12.818Z,7.00
2018-04-26T22:57:41.851Z,7.00
2018-04-26T23:00:10.887Z,7.00
2018-04-26T23:02:40.244Z,7.00
2018-04-26T23:05:08.450Z,7.00
2018-04-26T23:07:36.912Z,7.00
2018-04-26T23:10:05.483Z,7.10
2018-04-26T23:12:35.417Z,7.10
2018-04-26T23:15:03.711Z,7.00
2018-04-26T23:17:32.725Z,7.00
2018-04-26T23:20:00.961Z,7.00
2018-04-26T23:22:29.375Z,7.10
2018-04-26T23:24:57.608Z,7.00
2018-04-26T23:27:25.779Z,7.00
2018-04-26T23:29:54.035Z,7.10
2018-04-26T23:32:22.224Z,7.00
2018-04-26T23:34:50.547Z,7.00
2018-04-26T23:37:19.572Z,6.80
2018-04-26T23:39:47.755Z,6.80
2018-04-26T23:42:16.295Z,6.80
2018-04-26T23:44:44.511Z,6.90
2018-04-26T23:47:12.766Z,6.70
2018-04-26T23:49:40.983Z,6.80
2018-04-26T23:52:09.994Z,6.80
2018-04-26T23:54:38.228Z,6.80
2018-04-26T23:57:06.407Z,6.80
2018-04-26T23:59:34.626Z,6.70
